Time;durP1;ratioP1;P1;durP2;ratioP2;P2;SDS_P1;SDS_P2;PMS_P1;PMS_P2;Temp;Humidity;BMP_temperature;BMP_pressure;BME280_temperature;BME280_humidity;BME280_pressure;Samples;Min_cycle;Max_cycle;Signal;HPM_P1;HPM_P2
2022/05/04 00:03:17;;;;;;;5.68;4.57;;;;;;;10.57;85.97;99296.09;8304675;28;20048;-71
2022/05/04 00:07:19;;;;;;;5.40;4.68;;;;;;;10.46;86.01;99284.94;8307181;28;20045;-71
2022/05/04 00:11:20;;;;;;;6.15;4.15;;;;;;;10.35;86.03;99281.53;8309037;28;20077;-71
2022/05/04 00:15:21;;;;;;;6.25;4.47;;;;;;;10.24;85.82;99284.19;8307165;28;20555;-71
2022/05/04 00:19:23;;;;;;;4.18;3.88;;;;;;;10.11;86.24;99282.50;8308458;28;20037;-71
2022/05/04 00:23:25;;;;;;;5.53;4.35;;;;;;;10.03;87.08;99281.66;8304945;28;20048;-70
2022/05/04 00:27:27;;;;;;;5.10;4.65;;;;;;;9.94;87.26;99273.03;8313102;28;20685;-71
2022/05/04 00:31:29;;;;;;;4.68;4.28;;;;;;;9.84;86.41;99279.13;8305746;28;20058;-71
2022/05/04 00:35:30;;;;;;;5.73;4.80;;;;;;;9.81;86.13;99278.28;8330008;28;20053;-71
2022/05/04 00:39:33;;;;;;;6.10;5.17;;;;;;;9.74;86.75;99282.63;8342708;28;20056;-71
2022/05/04 00:43:34;;;;;;;6.70;5.22;;;;;;;9.72;87.06;99284.38;8338924;28;20136;-72
2022/05/04 00:47:36;;;;;;;5.65;4.95;;;;;;;9.64;87.36;99286.09;8335664;28;20081;-71
2022/05/04 00:51:38;;;;;;;5.97;5.40;;;;;;;9.55;87.18;99287.00;8336800;28;20132;-71
2022/05/04 00:55:40;;;;;;;6.82;5.72;;;;;;;9.47;87.46;99290.44;8340614;28;20049;-71
2022/05/04 00:59:42;;;;;;;5.70;5.10;;;;;;;9.37;87.62;99295.66;8323750;28;20125;-71
2022/05/04 01:03:43;;;;;;;5.22;4.82;;;;;;;9.34;86.90;99287.03;8333724;28;20091;-71
2022/05/04 01:07:46;;;;;;;6.70;6.00;;;;;;;9.29;87.49;99288.75;8341464;28;20733;-71
2022/05/04 01:11:49;;;;;;;6.43;5.82;;;;;;;9.27;87.47;99283.56;8336111;28;20073;-71
2022/05/04 01:15:50;;;;;;;6.03;5.38;;;;;;;9.19;87.31;99289.63;8338036;28;20057;-71
2022/05/04 01:19:52;;;;;;;5.93;5.32;;;;;;;9.12;87.33;99286.16;8333902;28;20099;-71
2022/05/04 01:23:54;;;;;;;6.38;5.45;;;;;;;9.08;88.16;99287.91;8334835;28;20045;-71
2022/05/04 01:27:56;;;;;;;5.17;4.70;;;;;;;9.04;88.19;99283.59;8340298;28;20037;-71
2022/05/04 01:31:57;;;;;;;6.50;5.30;;;;;;;8.95;87.93;99293.06;8341360;28;20053;-71
2022/05/04 01:35:59;;;;;;;5.88;5.38;;;;;;;8.92;88.49;99290.47;8334898;28;20057;-71
2022/05/04 01:40:00;;;;;;;5.35;4.85;;;;;;;8.87;88.06;99292.22;8336730;28;20048;-71
2022/05/04 01:44:02;;;;;;;6.30;5.10;;;;;;;8.83;88.84;99293.94;8353079;28;20075;-71
2022/05/04 01:48:03;;;;;;;7.00;6.30;;;;;;;8.92;90.10;99291.34;8335616;28;20040;-72
2022/05/04 01:52:06;;;;;;;6.68;5.35;;;;;;;8.94;90.29;99287.03;8343359;28;20045;-71
2022/05/04 01:56:08;;;;;;;5.72;5.22;;;;;;;8.94;89.99;99292.19;8333482;28;20656;-71
2022/05/04 02:00:09;;;;;;;6.93;5.60;;;;;;;8.99;90.30;99289.63;8333896;28;20092;-71
2022/05/04 02:04:12;;;;;;;5.88;5.28;;;;;;;8.95;90.55;99295.66;8341671;28;20068;-71
2022/05/04 02:08:14;;;;;;;6.75;4.95;;;;;;;8.94;90.54;99288.75;8343487;28;20468;-71
2022/05/04 02:12:16;;;;;;;4.80;4.35;;;;;;;8.93;90.75;99292.19;8344975;28;20073;-71
2022/05/04 02:16:17;;;;;;;5.35;4.30;;;;;;;8.94;90.39;99292.19;8338612;28;20041;-71
2022/05/04 02:20:19;;;;;;;6.53;4.88;;;;;;;8.86;90.43;99290.47;8336929;28;20038;-71
2022/05/04 02:24:20;;;;;;;5.22;4.55;;;;;;;8.85;91.07;99291.34;8342802;28;20068;-72
2022/05/04 02:28:22;;;;;;;5.20;4.70;;;;;;;8.79;90.16;99285.28;8341922;28;20052;-71
2022/05/04 02:32:24;;;;;;;5.33;4.50;;;;;;;8.70;89.71;99285.28;8335642;28;20072;-71
2022/05/04 02:40:46;;;;;;;5.30;4.80;;;;;;;8.66;89.54;99286.16;8339333;28;20084;-71
2022/05/04 02:44:48;;;;;;;5.10;4.63;;;;;;;8.52;89.45;99280.06;8339726;28;20566;-71
2022/05/04 02:48:49;;;;;;;4.82;4.35;;;;;;;8.44;89.00;99281.81;8338423;28;20056;-72
2022/05/04 02:52:50;;;;;;;5.55;5.03;;;;;;;8.40;88.94;99286.06;8340660;28;20056;-72
2022/05/04 02:56:52;;;;;;;6.03;5.53;;;;;;;8.33;89.43;99286.91;8340837;28;20536;-71
2022/05/04 03:00:54;;;;;;;6.43;5.82;;;;;;;8.27;89.49;99280.84;8330256;28;20274;-71
2022/05/04 03:05:01;;;;;;;6.10;4.75;;;;;;;8.27;89.54;99281.72;8319036;28;20045;-71
2022/05/04 03:09:03;;;;;;;5.72;5.22;;;;;;;8.29;90.35;99279.13;8334789;28;20073;-71
2022/05/04 03:13:05;;;;;;;5.82;5.22;;;;;;;8.31;90.26;99280.00;8338656;28;20068;-71
2022/05/04 03:17:07;;;;;;;5.65;4.90;;;;;;;8.32;90.68;99279.13;8335021;28;20084;-71
2022/05/04 03:21:09;;;;;;;8.27;5.07;;;;;;;8.35;91.21;99272.28;8319281;28;20055;-71
2022/05/04 03:25:11;;;;;;;5.90;5.30;;;;;;;8.37;90.62;99272.28;8337468;28;20052;-71
2022/05/04 03:29:13;;;;;;;5.38;4.88;;;;;;;8.36;91.41;99271.41;8336993;28;20045;-71
2022/05/04 03:33:14;;;;;;;6.60;4.80;;;;;;;8.41;91.67;99274.88;8332238;28;20338;-71
2022/05/04 03:37:16;;;;;;;4.75;4.35;;;;;;;8.42;91.34;99275.72;8332848;28;20041;-71
2022/05/04 03:41:17;;;;;;;5.50;4.57;;;;;;;8.38;91.33;99264.50;8338063;28;20402;-71
2022/05/04 03:45:20;;;;;;;4.68;4.28;;;;;;;8.32;90.72;99266.22;8333412;28;20041;-71
2022/05/04 03:49:23;;;;;;;4.85;4.38;;;;;;;8.31;89.93;99267.06;8334700;28;20044;-71
2022/05/04 03:53:25;;;;;;;;;;;;;;;8.23;90.07;99258.41;8334558;28;20076;-71
2022/05/04 03:57:27;;;;;;;10.48;4.85;;;;;;;8.15;90.27;99256.66;8334888;28;19925;-71
2022/05/04 04:01:28;;;;;;;5.18;4.68;;;;;;;8.11;89.90;99267.88;8340952;28;20136;-71
2022/05/04 04:05:30;;;;;;;4.28;3.92;;;;;;;8.10;89.68;99265.28;8339868;28;20115;-71
2022/05/04 04:09:31;;;;;;;6.93;4.47;;;;;;;8.06;89.68;99266.97;8342990;28;20045;-71
2022/05/04 04:13:32;;;;;;;5.10;4.57;;;;;;;7.99;89.97;99270.41;8339705;28;20052;-71
2022/05/04 04:17:34;;;;;;;5.63;4.70;;;;;;;7.97;89.69;99269.53;8338176;28;20095;-71
2022/05/04 04:21:52;;;;;;;5.68;4.97;;;;;;;7.96;90.02;99264.38;8346240;28;20142;-71
2022/05/04 04:25:54;;;;;;;5.45;4.43;;;;;;;7.88;89.80;99274.66;8339328;28;20041;-71
2022/05/04 04:29:55;;;;;;;5.07;4.57;;;;;;;7.86;90.38;99273.78;8344240;28;20075;-72
2022/05/04 04:33:57;;;;;;;6.45;4.80;;;;;;;7.88;90.84;99274.66;8343727;28;20420;-72
2022/05/04 04:37:58;;;;;;;5.47;4.97;;;;;;;7.87;90.46;99272.94;8341373;28;20075;-72
2022/05/04 04:41:59;;;;;;;6.20;4.53;;;;;;;7.86;90.57;99274.66;8342754;28;20079;-71
2022/05/04 04:46:07;;;;;;;5.20;4.70;;;;;;;7.91;90.42;99273.81;8342165;28;20160;-71
2022/05/04 04:50:09;;;;;;;5.35;4.82;;;;;;;7.95;90.26;99275.56;8337493;28;20505;-71
2022/05/04 04:54:10;;;;;;;4.93;4.32;;;;;;;7.88;89.79;99283.28;8341313;28;20568;-72
2022/05/04 04:58:14;;;;;;;5.35;4.57;;;;;;;7.81;90.27;99286.69;8338982;28;20060;-73
2022/05/04 05:02:15;;;;;;;5.72;4.75;;;;;;;7.89;90.72;99287.59;8353670;28;20049;-71
2022/05/04 05:06:19;;;;;;;6.90;5.30;;;;;;;8.03;91.31;99298.00;8339919;28;20036;-72
2022/05/04 05:10:20;;;;;;;6.30;4.93;;;;;;;8.23;91.65;99312.72;8340745;28;20051;-72
2022/05/04 05:18:42;;;;;;;5.28;4.80;;;;;;;8.52;90.89;99305.09;8338641;28;20457;-72
2022/05/04 05:22:43;;;;;;;5.32;4.30;;;;;;;8.70;90.25;99307.72;8325375;28;20054;-72
2022/05/04 05:26:45;;;;;;;5.40;4.90;;;;;;;8.89;90.22;99309.47;8336445;28;20056;-72
2022/05/04 05:30:46;;;;;;;7.20;5.20;;;;;;;9.37;89.50;99312.94;8340649;28;20057;-72
2022/05/04 05:34:48;;;;;;;6.63;5.07;;;;;;;10.00;86.60;99313.66;8340088;28;20057;-72
2022/05/04 05:38:49;;;;;;;6.38;4.68;;;;;;;10.41;84.45;99307.44;8345870;28;20087;-72
2022/05/04 05:42:51;;;;;;;4.57;4.17;;;;;;;10.81;82.48;99301.16;8336328;28;20049;-72
2022/05/04 05:46:52;;;;;;;4.85;4.28;;;;;;;11.02;81.18;99305.34;8335277;28;20383;-72
2022/05/04 05:50:54;;;;;;;4.15;3.55;;;;;;;11.14;80.67;99305.25;8337169;28;20068;-72
2022/05/04 05:54:55;;;;;;;4.32;3.95;;;;;;;11.38;80.19;99304.16;8338817;28;20044;-72
2022/05/04 05:58:57;;;;;;;6.20;4.07;;;;;;;11.62;78.63;99308.25;8340062;28;20528;-71
2022/05/04 06:02:59;;;;;;;5.30;4.10;;;;;;;11.94;77.74;99313.16;8336714;28;20358;-72
2022/05/04 06:07:00;;;;;;;5.63;4.22;;;;;;;12.25;76.99;99310.22;8343286;28;20133;-72
2022/05/04 06:11:02;;;;;;;4.20;3.90;;;;;;;12.49;76.53;99311.63;8317932;28;20055;-72
2022/05/04 06:15:05;;;;;;;5.28;4.32;;;;;;;12.89;75.00;99310.16;8336911;28;20049;-72
2022/05/04 06:19:06;;;;;;;6.50;4.53;;;;;;;13.16;74.84;99316.72;8338924;28;20497;-72
2022/05/04 06:23:08;;;;;;;5.07;3.75;;;;;;;13.62;73.21;99313.34;8336206;28;20055;-72
2022/05/04 06:27:10;;;;;;;5.05;4.05;;;;;;;14.06;72.38;99317.75;8326138;28;20095;-71
2022/05/04 06:35:31;;;;;;;4.90;4.50;;;;;;;14.81;70.17;99319.66;8335721;28;20100;-72
2022/05/04 06:39:33;;;;;;;6.33;3.87;;;;;;;15.09;68.63;99319.88;8330987;28;20092;-72
2022/05/04 06:43:35;;;;;;;6.87;4.03;;;;;;;15.33;67.89;99312.31;8323615;28;20419;-73
2022/05/04 06:47:36;;;;;;;5.25;4.85;;;;;;;15.57;66.99;99321.31;8335082;28;20071;-73
2022/05/04 06:51:38;;;;;;;7.03;5.95;;;;;;;15.94;66.48;99322.06;8338858;28;20128;-73
2022/05/04 06:55:40;;;;;;;11.73;7.00;;;;;;;16.30;65.95;99328.03;8332225;28;20706;-73
2022/05/04 06:59:41;;;;;;;11.97;6.80;;;;;;;16.65;64.89;99333.16;8338471;28;20049;-73
2022/05/04 07:03:42;;;;;;;8.20;7.10;;;;;;;16.86;63.18;99327.28;8321873;28;20398;-71
2022/05/04 07:07:44;;;;;;;9.10;6.22;;;;;;;17.08;62.17;99343.25;8333936;28;20049;-72
2022/05/04 07:11:45;;;;;;;10.17;5.77;;;;;;;17.36;61.14;99337.94;8338661;28;20041;-72
2022/05/04 07:15:50;;;;;;;9.30;5.75;;;;;;;17.63;60.43;99336.19;8333072;28;20446;-72
2022/05/04 07:19:53;;;;;;;8.38;5.07;;;;;;;17.91;59.45;99336.97;8334937;28;20033;-72
2022/05/04 07:23:55;;;;;;;9.45;5.05;;;;;;;18.11;58.13;99339.75;8342321;28;20551;-72
2022/05/04 07:27:57;;;;;;;6.15;3.97;;;;;;;18.16;56.13;99341.38;8338990;28;20072;-73
2022/05/04 07:31:58;;;;;;;4.50;4.10;;;;;;;18.28;56.24;99347.00;8338597;28;20299;-72
2022/05/04 07:35:59;;;;;;;6.65;4.03;;;;;;;18.48;55.80;99343.66;8345166;28;20397;-72
2022/05/04 07:44:21;;;;;;;8.95;4.75;;;;;;;18.95;54.65;99339.25;8340180;28;20741;-71
2022/05/04 07:48:23;;;;;;;4.88;4.05;;;;;;;19.20;53.96;99339.13;8340825;28;20470;-71
2022/05/04 07:52:25;;;;;;;5.80;3.63;;;;;;;19.30;52.15;99339.59;8342397;28;20055;-71
2022/05/04 07:56:26;;;;;;;6.00;3.45;;;;;;;19.48;51.91;99340.63;8341086;28;20072;-71
2022/05/04 08:04:49;;;;;;;6.03;4.00;;;;;;;20.11;51.05;99338.84;8340128;28;20049;-71
2022/05/04 08:08:51;;;;;;;6.32;4.63;;;;;;;20.36;48.87;99339.47;8339729;28;20670;-71
2022/05/04 08:12:53;;;;;;;6.43;4.95;;;;;;;20.47;47.25;99339.00;8345238;28;20096;-71
2022/05/04 08:16:55;;;;;;;12.50;4.45;;;;;;;20.34;48.06;99338.66;8337745;28;20091;-71
2022/05/04 08:20:56;;;;;;;11.63;5.00;;;;;;;20.34;47.67;99338.66;8339710;28;20084;-71
2022/05/04 08:24:58;;;;;;;9.48;5.65;;;;;;;20.55;47.55;99339.50;8342990;28;20635;-72
2022/05/04 08:28:59;;;;;;;;;;;;;;;20.59;46.59;99341.06;8343403;28;20052;-72
2022/05/04 08:33:01;;;;;;;9.88;5.07;;;;;;;20.50;46.61;99336.22;8334742;28;20226;-71
2022/05/04 08:37:03;;;;;;;8.82;5.00;;;;;;;20.66;47.52;99339.03;8364656;28;20073;-72
2022/05/04 08:41:04;;;;;;;8.30;4.82;;;;;;;20.92;47.53;99332.50;8331891;28;20056;-72
2022/05/04 08:45:10;;;;;;;10.25;4.93;;;;;;;21.12;47.73;99333.25;8337192;28;20063;-72
2022/05/04 08:49:12;;;;;;;6.70;4.78;;;;;;;21.09;45.96;99322.84;8334387;28;20562;-72
2022/05/04 08:53:16;;;;;;;;;;;;;;;21.25;45.50;99330.06;8332095;28;20064;-72
2022/05/04 08:57:17;;;;;;;6.15;4.47;;;;;;;21.58;46.45;99322.25;8331843;28;19935;-73
2022/05/04 09:01:19;;;;;;;7.18;4.50;;;;;;;21.90;46.42;99323.22;8335096;28;20446;-73
2022/05/04 09:05:23;;;;;;;12.32;5.45;;;;;;;22.13;45.48;99327.38;8338041;28;20152;-71
2022/05/04 09:09:25;;;;;;;11.38;6.40;;;;;;;22.11;45.69;99321.31;8330966;28;20052;-72
2022/05/04 09:13:26;;;;;;;13.50;5.07;;;;;;;22.33;45.37;99313.09;8330073;28;20041;-72
2022/05/04 09:17:28;;;;;;;15.00;6.40;;;;;;;22.52;43.93;99317.28;8327962;28;20345;-71
2022/05/04 09:21:30;;;;;;;9.63;4.82;;;;;;;22.60;43.24;99315.06;8331289;28;20036;-72
2022/05/04 09:25:35;;;;;;;8.30;4.25;;;;;;;22.39;40.40;99313.59;8337609;28;20148;-71
2022/05/04 09:29:42;;;;;;;11.75;4.22;;;;;;;22.33;41.79;99306.00;8335278;28;20051;-72
2022/05/04 09:33:51;;;;;;;6.18;3.60;;;;;;;22.47;42.08;99308.75;8326771;28;20084;-73
2022/05/04 09:46:39;;;;;;;4.70;2.90;;;;;;;22.94;40.01;99304.44;8335240;28;20143;-72
2022/05/04 09:50:41;;;;;;;7.38;3.38;;;;;;;23.15;41.05;99308.50;8338441;28;20071;-72
2022/05/04 09:54:44;;;;;;;7.93;3.90;;;;;;;23.23;39.44;99308.94;8338356;28;20048;-72
2022/05/04 09:58:47;;;;;;;7.18;4.18;;;;;;;23.16;38.34;99296.97;8337771;28;20705;-72
2022/05/04 10:02:51;;;;;;;4.93;3.50;;;;;;;23.30;39.65;99298.81;8332246;28;20103;-72
2022/05/04 10:06:54;;;;;;;4.22;3.78;;;;;;;23.49;39.31;99291.50;8337399;28;20113;-72
2022/05/04 10:10:55;;;;;;;6.00;4.03;;;;;;;23.74;38.54;99288.31;8336466;28;20036;-72
2022/05/04 10:14:58;;;;;;;6.13;4.07;;;;;;;23.57;37.86;99294.63;8328547;28;20051;-72
2022/05/04 10:19:06;;;;;;;5.80;3.35;;;;;;;23.71;39.01;99277.91;8328323;28;20153;-72
2022/05/04 10:23:25;;;;;;;10.18;4.07;;;;;;;24.01;38.65;99273.34;8333620;28;20063;-72
2022/05/04 10:27:28;;;;;;;4.07;3.30;;;;;;;24.22;36.89;99275.63;8333486;28;20079;-72
2022/05/04 10:31:29;;;;;;;4.88;2.88;;;;;;;24.21;36.99;99276.56;8325027;28;20052;-72
2022/05/04 10:35:35;;;;;;;5.85;2.60;;;;;;;24.34;36.79;99262.47;8330671;28;20440;-72
2022/05/04 10:39:36;;;;;;;2.53;2.33;;;;;;;23.87;35.24;99256.56;8326260;28;20124;-72
2022/05/04 10:43:47;;;;;;;5.10;1.90;;;;;;;23.43;37.50;99254.78;8328658;28;20153;-72
2022/05/04 10:47:48;;;;;;;3.70;2.30;;;;;;;23.61;37.27;99250.22;8332214;28;20065;-72
2022/05/04 10:51:50;;;;;;;2.33;1.65;;;;;;;23.19;37.37;99247.34;8332135;28;20073;-72
2022/05/04 10:56:07;;;;;;;7.53;2.08;;;;;;;22.77;37.31;99250.59;8332365;28;20055;-72
2022/05/04 11:00:10;;;;;;;2.80;2.20;;;;;;;22.44;37.48;99240.13;8325229;28;20399;-71
2022/05/04 11:04:13;;;;;;;4.22;2.10;;;;;;;22.68;36.79;99234.41;8327844;28;20799;-72
2022/05/04 11:08:25;;;;;;;3.05;1.83;;;;;;;23.25;37.63;99237.31;8335520;28;20552;-72
2022/05/04 11:12:26;;;;;;;3.90;2.35;;;;;;;23.59;37.55;99234.41;8341259;28;20136;-72
2022/05/04 11:16:28;;;;;;;2.83;1.65;;;;;;;24.23;37.73;99226.91;8335613;28;20587;-72
2022/05/04 11:20:30;;;;;;;;;;;;;;;24.20;35.52;99232.41;8338148;28;20037;-71
2022/05/04 11:24:31;;;;;;;5.80;1.73;;;;;;;24.14;35.00;99227.50;8336532;28;20020;-72
2022/05/04 11:28:33;;;;;;;2.58;1.50;;;;;;;24.42;35.63;99219.56;8336259;28;20091;-71
2022/05/04 11:32:34;;;;;;;;;;;;;;;24.27;35.87;99212.53;8336396;28;20524;-72
2022/05/04 11:36:36;;;;;;;2.95;1.50;;;;;;;23.99;36.31;99210.75;8331185;28;19956;-71
2022/05/04 11:40:43;;;;;;;;;;;;;;;23.59;35.97;99209.69;8336423;28;20163;-71
2022/05/04 11:44:47;;;;;;;3.20;1.90;;;;;;;23.43;36.76;99209.72;8334491;28;19987;-71
2022/05/04 11:48:49;;;;;;;;;;;;;;;23.57;35.28;99201.84;8334280;28;20525;-71
2022/05/04 11:52:51;;;;;;;3.20;1.85;;;;;;;23.97;36.40;99209.97;8338497;28;19925;-71
2022/05/04 11:56:53;;;;;;;2.50;1.90;;;;;;;24.27;36.26;99205.41;8335911;28;20447;-71
2022/05/04 12:00:55;;;;;;;3.45;1.67;;;;;;;23.91;36.28;99211.22;8334240;28;20056;-71
2022/05/04 12:04:57;;;;;;;3.72;2.30;;;;;;;23.55;37.84;99210.78;8337736;28;20123;-71
2022/05/04 12:09:05;;;;;;;4.80;2.53;;;;;;;23.40;37.54;99205.47;8339000;28;20056;-71
2022/05/04 12:13:06;;;;;;;5.50;2.17;;;;;;;22.99;37.79;99199.97;8344526;28;20041;-71
2022/05/04 12:17:09;;;;;;;3.92;1.63;;;;;;;22.80;39.08;99201.91;8329576;28;20139;-71
2022/05/04 12:21:13;;;;;;;7.38;2.10;;;;;;;22.64;39.84;99199.31;8340680;28;20045;-71
2022/05/04 12:25:15;;;;;;;4.45;1.92;;;;;;;23.05;40.13;99204.91;8331085;28;20128;-71
2022/05/04 12:33:37;;;;;;;17.23;4.05;;;;;;;23.70;39.64;99186.91;8332700;28;20278;-71
2022/05/04 12:37:38;;;;;;;;;;;;;;;23.32;38.97;99186.50;8337484;28;20583;-71
2022/05/04 12:41:44;;;;;;;6.90;2.17;;;;;;;23.15;41.01;99184.84;8333438;28;19967;-71
2022/05/04 12:45:47;;;;;;;6.15;2.17;;;;;;;22.82;41.05;99177.13;8333417;28;20067;-71
2022/05/04 12:49:48;;;;;;;12.43;2.55;;;;;;;22.61;41.25;99181.78;8334699;28;20048;-70
2022/05/04 12:53:51;;;;;;;4.90;1.77;;;;;;;22.73;41.49;99174.94;8333531;28;20049;-71
2022/05/04 12:57:52;;;;;;;5.85;2.35;;;;;;;22.94;40.63;99174.69;8338935;28;20063;-71
2022/05/04 13:01:54;;;;;;;2.20;1.77;;;;;;;23.24;40.00;99169.38;8335483;28;20055;-71
2022/05/04 13:05:56;;;;;;;2.25;1.77;;;;;;;23.67;38.41;99173.78;8335532;28;20044;-72
2022/05/04 13:09:57;;;;;;;6.63;1.63;;;;;;;23.60;37.91;99179.59;8330016;28;20404;-71
2022/05/04 13:13:58;;;;;;;13.88;1.60;;;;;;;23.45;38.80;99168.06;8337197;28;20492;-72
2022/05/04 13:18:04;;;;;;;4.85;2.00;;;;;;;23.19;37.87;99161.72;8333492;28;20349;-72
2022/05/04 13:22:06;;;;;;;9.10;1.45;;;;;;;22.96;39.76;99160.41;8338200;28;20033;-72
2022/05/04 13:26:12;;;;;;;5.30;1.60;;;;;;;22.65;38.46;99158.66;8332046;28;20064;-71
2022/05/04 13:30:13;;;;;;;4.60;1.45;;;;;;;22.50;38.99;99162.19;8333244;28;20065;-71
2022/05/04 13:34:15;;;;;;;11.63;1.98;;;;;;;22.28;38.66;99159.91;8334302;28;20065;-72
2022/05/04 13:38:16;;;;;;;2.38;1.48;;;;;;;22.22;38.58;99150.50;8342908;28;20171;-71
2022/05/04 13:42:18;;;;;;;2.42;1.83;;;;;;;22.12;38.36;99144.03;8330328;28;20079;-71
2022/05/04 13:46:19;;;;;;;6.60;1.20;;;;;;;22.09;38.61;99146.00;8326495;28;20076;-71
2022/05/04 13:54:41;;;;;;;6.93;2.05;;;;;;;22.25;38.78;99131.81;8332578;28;20059;-71
2022/05/04 13:58:42;;;;;;;3.10;1.85;;;;;;;22.60;37.82;99137.75;8329205;28;20461;-71
2022/05/04 14:02:44;;;;;;;3.10;1.40;;;;;;;23.07;36.83;99130.66;8334730;28;20080;-71
2022/05/04 14:06:46;;;;;;;7.05;1.83;;;;;;;23.51;37.35;99133.25;8325610;28;20057;-71
2022/05/04 14:10:49;;;;;;;3.45;2.03;;;;;;;23.89;35.09;99128.25;8332839;28;20084;-71
2022/05/04 14:15:03;;;;;;;4.32;1.83;;;;;;;24.02;34.64;99130.97;8327548;28;20067;-73
2022/05/04 14:19:04;;;;;;;3.13;1.35;;;;;;;24.07;32.46;99124.44;8333106;28;20533;-72
2022/05/04 14:23:06;;;;;;;2.17;1.10;;;;;;;24.24;33.06;99117.19;8333366;28;20051;-72
2022/05/04 14:27:08;;;;;;;3.83;1.13;;;;;;;24.44;32.39;99115.94;8337666;28;20087;-72
2022/05/04 14:31:09;;;;;;;4.47;0.95;;;;;;;24.56;31.89;99113.28;8325045;28;20057;-71
2022/05/04 14:35:12;;;;;;;2.08;0.90;;;;;;;24.55;30.68;99116.91;8330251;28;20060;-71
2022/05/04 14:39:13;;;;;;;5.20;1.30;;;;;;;24.70;29.78;99121.19;8329844;28;20524;-72
2022/05/04 14:43:15;;;;;;;1.50;0.80;;;;;;;24.62;30.41;99117.38;8329804;28;20099;-71
2022/05/04 14:47:16;;;;;;;3.63;1.40;;;;;;;24.68;30.58;99120.47;8328821;28;20080;-71
2022/05/04 14:51:17;;;;;;;3.78;1.30;;;;;;;24.68;30.89;99125.78;8325155;28;20051;-72
2022/05/04 14:55:20;;;;;;;4.80;1.70;;;;;;;24.78;32.22;99122.50;8330880;28;20353;-72
2022/05/04 14:59:21;;;;;;;4.72;1.30;;;;;;;24.91;32.53;99120.72;8325636;28;20175;-71
2022/05/04 15:07:43;;;;;;;1.83;1.20;;;;;;;24.99;28.88;99129.03;8346520;28;20723;-72
2022/05/04 15:11:45;;;;;;;2.70;0.98;;;;;;;25.11;30.42;99130.00;8326902;28;20065;-72
2022/05/04 15:15:47;;;;;;;2.28;1.05;;;;;;;25.19;30.32;99117.94;8346255;28;20057;-72
2022/05/04 15:19:48;;;;;;;3.60;1.55;;;;;;;25.21;29.91;99117.81;8318918;28;20055;-71
2022/05/04 15:23:50;;;;;;;4.00;1.48;;;;;;;25.25;30.46;99129.94;8333270;28;20072;-72
2022/05/04 15:27:51;;;;;;;1.48;1.15;;;;;;;25.07;29.24;99124.06;8333660;28;20069;-71
2022/05/04 15:31:54;;;;;;;3.00;1.00;;;;;;;24.49;31.63;99127.94;8327745;28;20148;-71
2022/05/04 15:35:55;;;;;;;3.25;0.90;;;;;;;23.92;31.70;99130.72;8328326;28;20152;-71
2022/05/04 15:39:57;;;;;;;1.98;1.10;;;;;;;23.40;31.67;99133.06;8326901;28;20695;-71
2022/05/04 15:43:59;;;;;;;20.02;1.30;;;;;;;22.99;33.49;99132.91;8324940;28;20685;-71
2022/05/04 15:48:02;;;;;;;8.35;1.48;;;;;;;22.78;34.15;99137.63;8322427;28;20080;-71
2022/05/04 15:52:11;;;;;;;8.20;1.25;;;;;;;22.61;35.25;99135.94;8332778;28;20069;-71
2022/05/04 15:56:13;;;;;;;4.70;1.58;;;;;;;22.55;35.09;99145.09;8333607;28;20045;-71
2022/05/04 16:00:15;;;;;;;9.48;1.30;;;;;;;22.57;35.53;99140.56;8318418;28;20095;-71
2022/05/04 16:04:16;;;;;;;;;;;;;;;22.80;34.75;99147.19;8338077;28;20748;-72
2022/05/04 16:08:17;;;;;;;1.88;1.15;;;;;;;23.17;33.42;99150.34;8341333;28;20541;-73
2022/05/04 16:12:19;;;;;;;4.07;1.27;;;;;;;23.60;33.40;99145.13;8334046;28;20523;-73
2022/05/04 16:16:25;;;;;;;5.10;1.60;;;;;;;23.59;33.22;99154.88;8331334;28;20048;-71
2022/05/04 16:24:53;;;;;;;3.92;1.38;;;;;;;22.97;34.05;99150.66;8336995;28;20103;-71
2022/05/04 16:28:55;;;;;;;2.70;1.48;;;;;;;22.58;34.35;99142.28;8339494;28;20072;-73
2022/05/04 16:32:57;;;;;;;7.10;1.80;;;;;;;22.25;34.62;99152.13;8339719;28;20472;-72
2022/05/04 16:36:58;;;;;;;3.25;1.60;;;;;;;21.97;35.47;99152.78;8341642;28;20045;-71
2022/05/04 16:41:04;;;;;;;5.15;1.60;;;;;;;21.62;37.57;99155.53;8337571;28;20126;-72
2022/05/04 16:45:06;;;;;;;5.53;1.55;;;;;;;21.36;37.59;99156.03;8328621;28;20509;-72
2022/05/04 16:49:08;;;;;;;3.80;1.25;;;;;;;21.11;39.80;99166.97;8338780;28;20068;-72
2022/05/04 16:53:10;;;;;;;;;;;;;;;20.81;41.11;99177.28;8336716;28;20040;-71
2022/05/04 16:57:11;;;;;;;0.80;0.80;;;;;;;20.51;42.71;99171.75;8340983;28;20003;-72
2022/05/04 17:01:16;;;;;;;1.00;0.93;;;;;;;20.25;43.59;99177.38;8329473;28;20423;-72
2022/05/04 17:05:18;;;;;;;0.95;0.80;;;;;;;19.98;44.09;99169.84;8331787;28;20053;-72
2022/05/04 17:09:19;;;;;;;1.67;0.80;;;;;;;19.73;45.28;99177.13;8327775;28;20400;-72
2022/05/04 17:13:21;;;;;;;1.33;0.90;;;;;;;19.58;46.01;99182.19;8338768;28;20049;-71
2022/05/04 17:17:22;;;;;;;0.98;0.85;;;;;;;19.37;46.49;99172.53;8332824;28;20085;-72
2022/05/04 17:21:24;;;;;;;2.45;0.80;;;;;;;19.13;47.32;99177.09;8336958;28;20044;-72
2022/05/04 17:25:25;;;;;;;1.90;1.10;;;;;;;18.90;47.87;99183.34;8339576;28;20705;-72
2022/05/04 17:29:27;;;;;;;3.05;0.82;;;;;;;18.71;48.70;99191.13;8321835;28;20077;-71
2022/05/04 17:37:48;;;;;;;0.82;0.77;;;;;;;18.48;51.52;99196.41;8337595;28;20096;-71
2022/05/04 17:41:53;;;;;;;3.20;1.35;;;;;;;18.37;52.08;99206.50;8329791;28;20088;-71
2022/05/04 17:45:54;;;;;;;2.88;0.93;;;;;;;18.24;53.26;99211.38;8330715;28;20055;-71
2022/05/04 17:49:56;;;;;;;1.35;1.05;;;;;;;18.09;53.76;99219.84;8329936;28;20357;-71
2022/05/04 17:53:58;;;;;;;0.98;0.88;;;;;;;17.92;54.87;99222.22;8329153;28;20045;-71
2022/05/04 17:58:00;;;;;;;2.55;1.00;;;;;;;17.78;55.39;99228.00;8324514;28;20120;-72
2022/05/04 18:06:21;;;;;;;1.33;1.00;;;;;;;17.54;56.44;99237.56;8334800;28;20128;-71
2022/05/04 18:10:23;;;;;;;2.50;1.10;;;;;;;17.44;57.12;99239.69;8339703;28;20425;-71
2022/05/04 18:14:25;;;;;;;1.67;1.20;;;;;;;17.34;57.34;99242.66;8332145;28;20704;-70
2022/05/04 18:18:27;;;;;;;1.58;1.00;;;;;;;17.17;58.18;99249.34;8330218;28;20049;-71
2022/05/04 18:22:29;;;;;;;3.40;1.10;;;;;;;17.00;59.08;99256.03;8337946;28;20051;-70
2022/05/04 18:26:30;;;;;;;2.15;0.90;;;;;;;16.88;59.68;99267.81;8336186;28;20750;-71
2022/05/04 18:30:35;;;;;;;1.33;1.23;;;;;;;16.79;60.05;99274.19;8329036;28;20829;-70
2022/05/04 18:34:37;;;;;;;1.40;1.30;;;;;;;16.80;60.99;99281.16;8331951;28;20532;-71
2022/05/04 18:38:38;;;;;;;1.73;1.30;;;;;;;16.76;61.22;99287.41;8332557;28;20714;-70
2022/05/04 18:42:42;;;;;;;1.40;1.23;;;;;;;16.74;61.89;99296.22;8331954;28;20048;-70
2022/05/04 18:46:45;;;;;;;2.08;1.02;;;;;;;16.68;62.12;99294.63;8333986;28;20358;-70
2022/05/04 18:50:46;;;;;;;3.25;1.30;;;;;;;16.65;62.86;99304.31;8335463;28;20357;-71
2022/05/04 18:54:50;;;;;;;3.00;1.50;;;;;;;16.59;62.84;99306.22;8333200;28;20053;-70
2022/05/04 18:58:54;;;;;;;1.67;1.58;;;;;;;16.49;63.12;99310.03;8313408;28;20045;-71
2022/05/04 19:02:56;;;;;;;2.08;1.85;;;;;;;16.37;63.47;99320.03;8329607;28;20062;-70
2022/05/04 19:06:57;;;;;;;2.92;1.38;;;;;;;16.27;63.70;99322.91;8338161;28;20440;-71
2022/05/04 19:11:00;;;;;;;2.23;1.53;;;;;;;16.15;64.29;99320.63;8331843;28;20052;-70
2022/05/04 19:15:02;;;;;;;1.70;1.60;;;;;;;16.06;64.42;99322.66;8330794;28;20045;-72
2022/05/04 19:19:04;;;;;;;;;;;;;;;15.90;64.95;99327.44;8338180;28;20055;-71
2022/05/04 19:23:07;;;;;;;2.40;2.15;;;;;;;15.82;65.98;99326.81;8333918;28;19960;-71
2022/05/04 19:27:09;;;;;;;2.20;2.00;;;;;;;15.70;66.81;99330.59;8332982;28;20048;-70
2022/05/04 19:31:12;;;;;;;2.70;2.27;;;;;;;15.58;66.99;99342.19;8688737;22;20030;-70
2022/05/04 19:35:13;;;;;;;4.72;2.05;;;;;;;15.51;68.16;99345.88;8297820;28;20124;-70
2022/05/04 19:39:15;;;;;;;3.63;2.27;;;;;;;15.38;68.55;99352.31;8307708;28;20052;-70
2022/05/04 19:43:17;;;;;;;3.60;1.88;;;;;;;15.29;69.28;99358.63;8314659;28;20140;-70
2022/05/04 19:47:18;;;;;;;2.37;1.60;;;;;;;15.21;69.46;99352.72;8311533;28;21800;-70
2022/05/04 19:51:20;;;;;;;2.70;2.50;;;;;;;15.16;69.50;99361.56;8313708;28;20444;-70
2022/05/04 19:55:21;;;;;;;2.43;2.23;;;;;;;15.07;69.69;99378.31;8315111;28;20341;-70
2022/05/04 19:59:23;;;;;;;5.60;2.20;;;;;;;15.00;70.30;99380.22;8315484;28;20504;-70
2022/05/04 20:03:25;;;;;;;1.97;1.87;;;;;;;14.93;70.31;99388.25;8311266;28;20092;-70